Time;durP1;ratioP1;P1;durP2;ratioP2;P2;SDS_P1;SDS_P2;PMS_P1;PMS_P2;Temp;Humidity;BMP_temperature;BMP_pressure;BME280_temperature;BME280_humidity;BME280_pressure;Samples;Min_cycle;Max_cycle;Signal;HPM_P1;HPM_P2
2023/05/21 00:04:37;;;;;;;18.60;16.80;;;;;;;14.66;80.88;99220.70;225468;1283;22543;-76
2023/05/21 00:09:45;;;;;;;18.90;16.90;;;;;;;14.62;81.11;99213.03;225448;1283;24371;-76
2023/05/21 00:14:52;;;;;;;18.40;16.60;;;;;;;14.61;81.01;99214.30;225333;1283;23408;-75
2023/05/21 00:20:06;;;;;;;18.80;16.90;;;;;;;14.61;81.28;99215.89;225419;1283;22568;-75
2023/05/21 00:25:11;;;;;;;18.50;16.60;;;;;;;14.63;81.48;99206.24;225341;1280;22532;-75
2023/05/21 00:30:24;;;;;;;18.90;16.80;;;;;;;14.65;81.49;99212.71;225428;1283;22593;-76
2023/05/21 00:35:26;;;;;;;18.20;16.40;;;;;;;14.66;81.63;99210.38;225444;1283;22598;-75
2023/05/21 00:40:44;;;;;;;17.70;15.90;;;;;;;14.67;81.71;99206.91;225388;1280;24358;-75
2023/05/21 00:45:55;;;;;;;19.60;15.90;;;;;;;14.64;81.50;99205.31;225419;1283;22535;-75
2023/05/21 00:51:23;;;;;;;17.40;15.40;;;;;;;14.62;81.95;99208.86;225329;1283;22709;-76
2023/05/21 00:56:33;;;;;;;16.60;14.80;;;;;;;14.61;81.85;99202.02;225421;1283;22570;-75
2023/05/21 01:01:44;;;;;;;17.60;15.80;;;;;;;14.63;81.89;99199.33;225418;1283;22548;-75
2023/05/21 01:07:33;;;;;;;16.40;14.80;;;;;;;14.63;81.88;99193.98;225412;1283;22592;-75
2023/05/21 01:12:44;;;;;;;20.00;16.20;;;;;;;14.63;81.91;99187.88;225464;1277;22567;-75
2023/05/21 01:17:50;;;;;;;19.50;15.50;;;;;;;14.61;82.17;99177.92;225447;1278;22533;-75
2023/05/21 01:22:57;;;;;;;16.60;14.90;;;;;;;14.62;82.34;99172.52;225445;1283;22557;-76
2023/05/21 01:28:00;;;;;;;16.20;14.50;;;;;;;14.60;82.48;99175.55;225391;1278;24217;-75
2023/05/21 01:33:40;;;;;;;15.30;13.50;;;;;;;14.58;82.42;99168.23;225333;1277;22539;-75
2023/05/21 01:38:56;;;;;;;16.10;13.80;;;;;;;14.57;82.52;99162.66;225414;1283;22591;-74
2023/05/21 01:44:09;;;;;;;17.00;14.80;;;;;;;14.54;82.49;99159.43;225463;1280;22553;-75
2023/05/21 01:49:20;;;;;;;16.00;14.30;;;;;;;14.49;82.61;99156.20;225256;1283;22648;-74
2023/05/21 01:54:28;;;;;;;17.00;15.20;;;;;;;14.41;82.66;99156.42;225445;1281;22539;-75
2023/05/21 01:59:38;;;;;;;17.20;15.30;;;;;;;14.32;82.77;99151.16;225483;1279;22539;-75
2023/05/21 02:04:50;;;;;;;16.70;14.70;;;;;;;14.20;82.79;99150.74;225328;1280;24245;-74
2023/05/21 02:10:23;;;;;;;19.90;16.20;;;;;;;14.10;83.05;99151.53;225005;1287;25249;-75
2023/05/21 02:15:43;;;;;;;17.50;15.60;;;;;;;14.00;83.20;99151.23;225045;1287;22543;-75
2023/05/21 02:20:56;;;;;;;21.30;16.60;;;;;;;13.91;83.25;99145.57;225005;1286;22550;-75
2023/05/21 02:26:16;;;;;;;16.90;15.00;;;;;;;13.85;83.40;99145.66;225047;1264;22574;-76
2023/05/21 02:31:59;;;;;;;16.70;14.80;;;;;;;13.80;83.72;99148.43;225093;1283;22556;-75
2023/05/21 02:37:05;;;;;;;17.20;15.50;;;;;;;13.77;83.87;99144.38;225437;1281;22555;-74
2023/05/21 02:42:15;;;;;;;16.60;14.90;;;;;;;13.73;83.93;99143.83;225525;1283;22667;-74
2023/05/21 02:47:32;;;;;;;17.50;15.30;;;;;;;13.69;84.02;99140.75;225403;1281;22546;-74
2023/05/21 02:52:51;;;;;;;18.40;15.80;;;;;;;13.68;84.29;99137.73;225478;1283;25413;-74
2023/05/21 02:58:13;;;;;;;16.20;14.50;;;;;;;13.69;84.51;99134.54;225415;1283;22570;-74
2023/05/21 03:03:43;;;;;;;16.00;14.40;;;;;;;13.70;84.54;99130.70;225437;1283;22537;-75
2023/05/21 03:08:46;;;;;;;18.40;16.40;;;;;;;13.73;84.64;99126.02;225482;1275;23738;-75
2023/05/21 03:13:57;;;;;;;22.10;15.40;;;;;;;13.79;84.74;99122.58;225493;1278;22554;-74
2023/05/21 03:19:20;;;;;;;17.50;15.40;;;;;;;13.84;84.87;99121.14;225459;1281;22567;-74
2023/05/21 03:24:23;;;;;;;16.50;14.90;;;;;;;13.90;84.80;99121.21;225496;1278;22539;-74
2023/05/21 03:29:33;;;;;;;16.80;14.80;;;;;;;13.95;84.91;99125.75;225458;1283;22815;-74
2023/05/21 03:34:54;;;;;;;16.50;14.10;;;;;;;14.00;84.72;99120.20;225456;1278;22544;-74
2023/05/21 03:40:15;;;;;;;16.50;14.70;;;;;;;14.07;84.89;99119.09;225357;1283;22541;-74
2023/05/21 03:45:24;;;;;;;17.40;15.00;;;;;;;14.12;84.69;99122.54;225527;1275;22549;-75
2023/05/21 03:50:55;;;;;;;;;;;;;;;14.17;84.71;99122.94;225469;1272;22543;-74
2023/05/21 03:56:18;;;;;;;15.10;13.60;;;;;;;14.23;84.53;99119.67;225387;1283;22555;-74
2023/05/21 04:01:45;;;;;;;15.50;13.90;;;;;;;14.41;84.58;99124.08;225410;1281;22544;-74
2023/05/21 04:06:53;;;;;;;14.20;12.90;;;;;;;14.66;84.80;99121.79;225382;1283;22539;-74
2023/05/21 04:12:07;;;;;;;14.80;13.30;;;;;;;14.95;84.59;99122.13;225510;1280;22551;-74
2023/05/21 04:17:19;;;;;;;;;;;;;;;15.25;84.33;99127.02;225505;1283;22518;-75
2023/05/21 04:22:26;;;;;;;15.00;13.40;;;;;;;15.51;84.04;99135.45;225418;1283;22547;-74
2023/05/21 04:27:33;;;;;;;16.40;13.30;;;;;;;15.75;83.50;99133.80;225512;1279;22547;-75
2023/05/21 04:32:50;;;;;;;12.80;11.60;;;;;;;15.91;83.18;99134.17;225388;1283;25288;-74
2023/05/21 04:38:14;;;;;;;12.60;11.30;;;;;;;16.02;82.73;99130.88;225422;1283;22555;-74
2023/05/21 04:43:25;;;;;;;11.60;10.50;;;;;;;16.12;82.33;99137.88;225435;1283;22570;-74
2023/05/21 04:48:51;;;;;;;11.20;9.60;;;;;;;16.23;82.20;99146.93;225459;1283;22606;-74
2023/05/21 04:54:17;;;;;;;11.10;9.60;;;;;;;16.35;81.95;99149.52;225566;1283;22551;-74
2023/05/21 04:59:57;;;;;;;9.90;9.00;;;;;;;16.46;81.57;99154.83;225452;1283;25225;-74
2023/05/21 05:05:17;;;;;;;11.20;9.80;;;;;;;16.60;81.18;99153.25;225527;1283;22548;-76
2023/05/21 05:16:26;;;;;;;;;;;;;;;;;;;;;
2023/05/21 05:21:47;;;;;;;10.20;8.50;;;;;;;16.99;80.27;99153.70;225520;1283;22536;-75
2023/05/21 05:27:19;;;;;;;9.80;8.70;;;;;;;17.09;79.77;99156.48;225509;1279;22543;-76
2023/05/21 05:32:46;;;;;;;;;;;;;;;17.20;79.42;99153.41;225553;1283;22517;-75
2023/05/21 05:38:17;;;;;;;;;;;;;;;;;;;;;
2023/05/21 05:43:47;;;;;;;11.60;7.80;;;;;;;17.38;79.02;99151.40;225429;1283;22554;-75
2023/05/21 05:49:02;;;;;;;11.20;8.40;;;;;;;17.48;78.90;99151.95;225524;1279;22560;-75
2023/05/21 05:54:22;;;;;;;9.00;7.80;;;;;;;17.61;78.58;99150.25;225413;1283;22548;-75
2023/05/21 05:59:42;;;;;;;8.80;7.90;;;;;;;17.77;78.40;99154.14;225594;1283;22530;-75
2023/05/21 06:05:05;;;;;;;11.70;7.20;;;;;;;17.94;77.92;99158.11;225577;1283;22546;-74
2023/05/21 06:10:45;;;;;;;8.40;7.00;;;;;;;18.12;77.43;99154.23;225279;1284;22548;-74
2023/05/21 06:15:55;;;;;;;9.90;7.20;;;;;;;18.29;76.69;99154.95;225298;1284;24417;-74
2023/05/21 06:21:09;;;;;;;9.10;7.10;;;;;;;18.42;76.47;99150.67;225263;1284;22551;-75
2023/05/21 06:26:17;;;;;;;7.50;6.80;;;;;;;18.58;76.22;99148.90;225290;1284;25358;-75
2023/05/21 06:31:47;;;;;;;10.20;7.00;;;;;;;18.72;75.99;99143.63;225173;1283;22550;-75
2023/05/21 06:37:05;;;;;;;8.10;7.30;;;;;;;18.85;75.70;99135.54;225546;1283;22581;-75
2023/05/21 06:42:17;;;;;;;7.90;7.10;;;;;;;19.01;75.48;99127.64;225549;1283;25262;-75
2023/05/21 06:48:15;;;;;;;8.10;6.60;;;;;;;19.19;75.21;99124.25;225364;1283;22569;-75
2023/05/21 06:53:30;;;;;;;8.20;6.80;;;;;;;19.36;74.76;99126.23;225430;1283;22539;-75
2023/05/21 06:58:42;;;;;;;8.60;6.70;;;;;;;19.55;74.67;99121.20;225385;1283;22541;-75
2023/05/21 07:03:47;;;;;;;7.10;6.40;;;;;;;19.71;74.16;99117.19;225468;1282;22543;-75
2023/05/21 07:08:52;;;;;;;6.90;6.20;;;;;;;19.83;73.63;99113.13;225554;1270;22655;-76
2023/05/21 07:13:59;;;;;;;6.90;6.20;;;;;;;19.97;73.30;99111.20;225313;1283;22571;-77
2023/05/21 07:19:15;;;;;;;9.60;7.10;;;;;;;20.19;72.89;99107.07;225462;1283;22541;-75
2023/05/21 07:24:32;;;;;;;;;;;;;;;;;;;;;
2023/05/21 07:29:35;;;;;;;7.00;6.40;;;;;;;20.58;72.42;99107.27;225491;1283;22547;-75
2023/05/21 07:34:40;;;;;;;8.90;6.40;;;;;;;20.78;72.06;99101.65;225537;1281;22558;-76
2023/05/21 07:39:46;;;;;;;7.10;6.10;;;;;;;20.96;71.64;99106.86;225427;1283;22512;-76
2023/05/21 07:44:48;;;;;;;11.00;5.70;;;;;;;21.13;71.25;99108.83;225428;1281;25490;-76
2023/05/21 07:49:54;;;;;;;7.60;6.40;;;;;;;21.29;70.53;99104.66;225593;1279;24325;-76
2023/05/21 07:55:00;;;;;;;8.40;6.30;;;;;;;21.48;70.01;99095.16;225431;1283;22563;-75
2023/05/21 08:00:12;;;;;;;9.00;6.10;;;;;;;21.66;69.97;99090.42;225460;1283;22550;-75
2023/05/21 08:05:25;;;;;;;9.00;5.90;;;;;;;21.83;69.43;99094.73;225551;1283;22541;-76
2023/05/21 08:10:27;;;;;;;6.80;5.30;;;;;;;22.02;69.07;99095.86;225553;1281;22565;-76
2023/05/21 08:15:30;;;;;;;9.20;5.60;;;;;;;22.18;68.16;99092.90;225414;1281;22545;-76
2023/05/21 08:20:33;;;;;;;6.90;5.00;;;;;;;22.36;67.91;99088.59;225356;1282;22533;-76
2023/05/21 08:25:41;;;;;;;5.80;4.90;;;;;;;22.53;67.63;99091.37;225332;1283;22538;-77
2023/05/21 08:30:44;;;;;;;8.00;5.30;;;;;;;22.73;67.09;99085.92;225407;1283;22550;-76
2023/05/21 08:35:46;;;;;;;7.00;5.60;;;;;;;22.95;66.75;99082.95;225443;1283;22600;-76
2023/05/21 08:41:14;;;;;;;5.80;4.50;;;;;;;23.08;66.05;99083.88;225448;1283;22550;-77
2023/05/21 08:46:19;;;;;;;6.50;4.80;;;;;;;23.27;65.35;99081.34;225525;1281;22571;-76
2023/05/21 08:51:21;;;;;;;5.70;3.90;;;;;;;23.43;64.58;99074.86;225409;1281;23283;-76
2023/05/21 08:56:30;;;;;;;6.30;4.30;;;;;;;23.60;63.49;99069.02;225514;1281;22578;-75
2023/05/21 09:01:37;;;;;;;5.90;4.00;;;;;;;23.80;62.19;99065.08;225402;1281;22581;-76
2023/05/21 09:06:56;;;;;;;6.00;4.10;;;;;;;24.00;61.05;99066.08;225416;1266;24229;-76
2023/05/21 09:12:24;;;;;;;6.00;3.80;;;;;;;24.16;59.68;99061.77;225417;1283;22644;-76
2023/05/21 09:17:29;;;;;;;5.00;4.40;;;;;;;24.28;58.95;99060.30;225380;1283;23319;-76
2023/05/21 09:22:46;;;;;;;4.90;4.30;;;;;;;24.43;58.83;99061.53;225386;1278;22660;-75
2023/05/21 09:27:48;;;;;;;4.90;4.30;;;;;;;24.55;57.90;99056.55;225366;1283;22528;-76
2023/05/21 09:32:56;;;;;;;4.50;4.10;;;;;;;24.66;57.08;99052.58;225431;1281;25325;-76
2023/05/21 09:38:00;;;;;;;5.00;4.40;;;;;;;24.75;57.07;99052.56;225450;1283;22579;-76
2023/05/21 09:43:03;;;;;;;5.40;4.20;;;;;;;24.86;56.38;99045.94;225421;1283;25063;-76
2023/05/21 09:48:06;;;;;;;4.90;4.20;;;;;;;25.00;55.78;99043.92;225383;1283;22548;-76
2023/05/21 09:53:13;;;;;;;4.50;3.80;;;;;;;25.12;55.31;99040.81;225443;1283;22984;-76
2023/05/21 09:58:18;;;;;;;9.50;3.90;;;;;;;25.26;55.11;99042.54;225404;1283;22539;-76
2023/05/21 10:03:22;;;;;;;4.40;3.90;;;;;;;25.38;54.69;99039.29;225367;1283;23265;-76
2023/05/21 10:08:34;;;;;;;4.80;4.10;;;;;;;25.47;54.29;99037.45;225440;1283;22544;-76
2023/05/21 10:13:42;;;;;;;7.70;4.00;;;;;;;25.53;53.94;99035.48;225463;1281;23300;-76
2023/05/21 10:18:48;;;;;;;5.80;4.20;;;;;;;25.60;53.25;99033.29;225351;1283;24395;-77
2023/05/21 10:23:52;;;;;;;3.70;3.40;;;;;;;25.69;53.37;99032.86;225496;1283;22696;-75
2023/05/21 10:28:58;;;;;;;4.20;3.80;;;;;;;25.82;52.43;99025.48;225458;1283;22541;-76
2023/05/21 10:34:04;;;;;;;5.00;3.60;;;;;;;25.97;53.15;99017.23;225422;1282;22566;-76
2023/05/21 10:39:09;;;;;;;4.80;3.50;;;;;;;26.09;51.49;99015.69;225235;1283;223349;-76
2023/05/21 10:44:27;;;;;;;5.70;4.00;;;;;;;26.13;50.78;99011.03;225439;1282;24222;-76
2023/05/21 10:49:52;;;;;;;5.60;3.40;;;;;;;26.17;51.20;99004.29;225405;1283;22551;-76
2023/05/21 10:55:32;;;;;;;3.90;3.30;;;;;;;26.27;50.94;99004.10;225433;1281;22577;-76
2023/05/21 11:00:34;;;;;;;4.20;3.30;;;;;;;26.32;49.89;99001.41;225416;1283;22547;-75
2023/05/21 11:05:50;;;;;;;4.10;3.60;;;;;;;26.36;49.96;98996.84;225441;1262;22571;-76
2023/05/21 11:10:54;;;;;;;5.40;3.30;;;;;;;26.46;50.34;98993.74;225405;1283;23074;-76
2023/05/21 11:16:06;;;;;;;4.70;3.80;;;;;;;26.55;49.40;98992.79;225404;1283;22546;-75
2023/05/21 11:21:11;;;;;;;3.80;3.40;;;;;;;26.58;49.49;98993.02;225503;1280;22564;-77
2023/05/21 11:26:16;;;;;;;3.50;3.20;;;;;;;26.61;49.53;98989.25;225495;1281;22565;-77
2023/05/21 11:31:24;;;;;;;3.40;3.20;;;;;;;26.65;48.99;98991.33;225479;1283;22570;-77
2023/05/21 11:36:30;;;;;;;4.50;3.30;;;;;;;26.64;49.49;98987.92;225472;1280;22543;-78
2023/05/21 11:42:01;;;;;;;3.80;3.20;;;;;;;26.71;48.93;98985.41;225430;1277;22544;-77
2023/05/21 11:47:13;;;;;;;4.20;3.20;;;;;;;26.72;48.74;98981.87;225403;1283;25395;-76
2023/05/21 11:52:18;;;;;;;4.80;3.60;;;;;;;26.67;48.76;98978.68;225372;1283;23293;-77
2023/05/21 11:57:22;;;;;;;3.90;3.10;;;;;;;26.71;48.79;98978.41;225251;1283;22581;-76
2023/05/21 12:02:31;;;;;;;4.60;3.30;;;;;;;26.61;48.13;98974.73;225402;1283;22693;-76
2023/05/21 12:07:47;;;;;;;3.90;3.60;;;;;;;26.56;48.47;98971.59;225286;1283;22539;-76
2023/05/21 12:12:50;;;;;;;4.20;3.70;;;;;;;26.54;49.07;98967.10;225414;1278;24232;-75
2023/05/21 12:17:59;;;;;;;4.80;3.30;;;;;;;26.67;48.20;98967.23;225418;1283;22557;-76
2023/05/21 12:23:05;;;;;;;14.70;13.30;;;;;;;26.61;47.21;98965.95;225490;1283;25300;-76
2023/05/21 12:28:25;;;;;;;3.60;3.20;;;;;;;26.53;47.40;98963.98;225439;1283;22542;-76
2023/05/21 12:33:34;;;;;;;3.40;3.20;;;;;;;26.55;47.78;98964.50;225364;1283;22613;-76
2023/05/21 12:38:40;;;;;;;4.00;3.60;;;;;;;26.60;47.90;98954.40;225421;1283;22557;-76
2023/05/21 12:43:45;;;;;;;4.90;4.00;;;;;;;26.56;48.03;98956.07;225404;1283;22911;-76
2023/05/21 12:48:55;;;;;;;5.20;3.90;;;;;;;26.43;47.32;98954.27;225409;1263;22569;-76
2023/05/21 12:54:10;;;;;;;4.20;3.60;;;;;;;26.35;48.21;98953.92;225428;1283;22652;-75
2023/05/21 12:59:14;;;;;;;3.80;3.40;;;;;;;26.32;47.83;98949.23;225447;1281;22543;-75
2023/05/21 13:04:20;;;;;;;4.00;3.60;;;;;;;26.27;48.18;98950.01;225381;1283;22576;-75
2023/05/21 13:09:35;;;;;;;5.50;3.60;;;;;;;26.19;47.49;98948.30;225477;1283;25251;-75
2023/05/21 13:14:52;;;;;;;4.40;3.40;;;;;;;26.09;47.98;98941.42;225439;1283;23608;-75
2023/05/21 13:20:25;;;;;;;4.30;3.90;;;;;;;26.06;48.27;98936.30;225363;1283;22562;-76
2023/05/21 13:25:35;;;;;;;5.80;3.70;;;;;;;26.02;47.63;98935.19;225375;1283;22563;-76
2023/05/21 13:30:38;;;;;;;3.90;3.50;;;;;;;25.96;47.30;98933.42;225336;1283;23745;-75
2023/05/21 13:35:52;;;;;;;4.70;3.60;;;;;;;25.94;47.47;98928.23;225413;1282;22968;-75
2023/05/21 13:41:03;;;;;;;3.50;3.10;;;;;;;26.03;47.88;98926.58;225469;1283;22534;-76
2023/05/21 13:46:08;;;;;;;3.80;3.10;;;;;;;26.08;47.68;98921.01;225347;1283;22542;-76
2023/05/21 13:51:16;;;;;;;6.20;3.70;;;;;;;26.18;47.61;98921.60;225352;1283;22595;-76
2023/05/21 13:56:43;;;;;;;3.80;3.50;;;;;;;26.26;47.77;98916.38;225367;1281;22547;-77
2023/05/21 14:01:50;;;;;;;4.10;3.80;;;;;;;26.24;47.06;98914.61;225467;1277;21764;-76
2023/05/21 14:06:59;;;;;;;4.00;3.60;;;;;;;26.20;47.52;98908.48;225389;1283;24225;-76
2023/05/21 14:12:03;;;;;;;3.90;3.50;;;;;;;26.29;48.09;98904.87;225346;1281;23275;-76
2023/05/21 14:17:11;;;;;;;6.70;3.40;;;;;;;26.42;47.86;98902.14;225420;1281;24225;-76
2023/05/21 14:22:13;;;;;;;6.00;3.70;;;;;;;26.41;47.86;98902.92;225332;1280;22553;-76
2023/05/21 14:27:25;;;;;;;4.70;3.70;;;;;;;26.43;47.17;98903.52;225380;1283;22570;-76
2023/05/21 14:32:27;;;;;;;4.90;3.70;;;;;;;26.39;46.64;98905.16;225454;1283;22565;-75
2023/05/21 14:37:35;;;;;;;3.30;3.10;;;;;;;26.38;46.73;98910.27;225393;1283;22550;-75
2023/05/21 14:42:46;;;;;;;5.40;3.70;;;;;;;26.37;46.82;98908.17;225424;1274;22467;-74
2023/05/21 14:47:51;;;;;;;4.20;3.80;;;;;;;26.31;46.74;98909.52;225448;1280;22561;-75
2023/05/21 14:53:08;;;;;;;3.50;3.20;;;;;;;26.25;46.40;98911.84;225363;1283;22546;-75
2023/05/21 14:58:15;;;;;;;4.10;3.70;;;;;;;26.18;46.41;98913.31;225482;1279;23029;-75
2023/05/21 15:03:18;;;;;;;4.70;3.60;;;;;;;26.15;46.76;98912.58;225459;1283;22554;-75
2023/05/21 15:08:32;;;;;;;4.60;3.60;;;;;;;26.11;46.48;98912.15;225443;1283;22550;-75
2023/05/21 15:13:38;;;;;;;4.80;4.20;;;;;;;26.01;46.04;98916.25;225398;1276;21750;-75
2023/05/21 15:18:49;;;;;;;5.10;4.20;;;;;;;25.94;46.72;98920.65;225393;1283;22570;-75
2023/05/21 15:24:11;;;;;;;3.90;3.50;;;;;;;25.90;47.41;98925.61;225371;1283;25404;-77
2023/05/21 15:29:21;;;;;;;5.00;4.00;;;;;;;25.82;47.35;98925.35;225429;1283;22555;-75
2023/05/21 15:34:24;;;;;;;4.20;3.90;;;;;;;25.65;47.04;98920.55;225374;1265;22567;-75
2023/05/21 15:39:32;;;;;;;5.60;4.00;;;;;;;25.48;46.81;98924.45;225371;1278;22594;-76
2023/05/21 15:44:43;;;;;;;5.00;4.00;;;;;;;25.39;46.77;98930.25;225385;1281;22539;-76
2023/05/21 15:49:48;;;;;;;4.80;4.00;;;;;;;25.29;47.10;98926.63;225436;1283;22561;-76
2023/05/21 15:54:52;;;;;;;5.20;3.90;;;;;;;25.25;47.12;98921.56;225375;1283;22571;-76
2023/05/21 16:00:02;;;;;;;5.20;4.10;;;;;;;25.19;47.49;98921.19;225363;1283;22586;-76
2023/05/21 16:05:20;;;;;;;6.50;4.20;;;;;;;25.12;47.96;98919.11;225416;1283;22562;-75
2023/05/21 16:10:44;;;;;;;5.10;4.50;;;;;;;25.04;48.77;98923.33;225421;1281;22551;-76
2023/05/21 16:15:59;;;;;;;5.80;4.40;;;;;;;24.87;49.21;98923.65;225481;1280;23376;-76
2023/05/21 16:21:20;;;;;;;4.70;4.30;;;;;;;24.73;49.83;98926.63;225416;1273;25574;-76
2023/05/21 16:26:46;;;;;;;4.90;4.50;;;;;;;24.63;50.42;98924.18;225410;1283;22567;-76
2023/05/21 16:31:59;;;;;;;4.50;4.00;;;;;;;24.53;50.31;98925.23;225441;1275;22527;-75
2023/05/21 16:37:18;;;;;;;5.50;4.00;;;;;;;24.40;50.14;98930.20;225422;1280;22594;-75
2023/05/21 16:42:23;;;;;;;6.20;4.00;;;;;;;24.26;50.39;98922.93;225452;1275;22705;-76
2023/05/21 16:47:39;;;;;;;4.80;4.30;;;;;;;24.16;50.71;98922.06;225414;1283;24284;-76
2023/05/21 16:52:49;;;;;;;4.60;4.10;;;;;;;24.05;50.96;98924.13;225340;1281;22497;-76
2023/05/21 16:58:04;;;;;;;4.40;4.00;;;;;;;23.90;50.98;98923.98;225301;1283;22566;-76
2023/05/21 17:03:18;;;;;;;5.80;3.90;;;;;;;23.71;50.91;98925.44;225411;1283;22550;-75
2023/05/21 17:08:26;;;;;;;5.90;4.00;;;;;;;23.50;51.22;98930.97;225424;1279;22555;-76
2023/05/21 17:13:49;;;;;;;4.00;3.50;;;;;;;23.31;51.85;98934.70;225447;1283;22734;-77
2023/05/21 17:19:01;;;;;;;6.20;3.70;;;;;;;23.30;52.38;98934.11;225444;1283;22578;-75
2023/05/21 17:24:06;;;;;;;4.30;3.80;;;;;;;23.51;52.24;98939.08;225421;1280;22711;-75
2023/05/21 17:29:42;;;;;;;4.20;3.90;;;;;;;23.48;52.04;98940.04;225350;1283;22584;-77
2023/05/21 17:35:00;;;;;;;4.10;3.70;;;;;;;23.25;52.37;98938.85;225295;1283;22563;-76
2023/05/21 17:40:08;;;;;;;4.90;3.80;;;;;;;22.84;52.57;98944.86;225363;1283;22580;-76
2023/05/21 17:45:14;;;;;;;4.30;3.50;;;;;;;22.41;53.03;98944.90;225474;1279;22673;-76
2023/05/21 17:50:20;;;;;;;4.80;3.20;;;;;;;22.01;53.43;98950.55;225459;1281;22553;-75
2023/05/21 17:55:28;;;;;;;4.70;3.20;;;;;;;21.65;53.87;98955.61;225447;1280;24292;-75
2023/05/21 18:00:33;;;;;;;4.60;3.30;;;;;;;21.32;54.55;98957.11;225476;1275;24236;-75
2023/05/21 18:05:38;;;;;;;5.70;3.30;;;;;;;21.05;55.22;98962.98;225486;1283;22658;-76
2023/05/21 18:10:44;;;;;;;3.30;2.90;;;;;;;20.78;55.58;98956.58;225430;1283;22544;-75
2023/05/21 18:15:46;;;;;;;5.40;3.40;;;;;;;20.45;55.82;98948.14;225386;1276;22554;-76
2023/05/21 18:20:52;;;;;;;3.40;3.10;;;;;;;20.16;56.28;98947.10;225388;1281;22562;-76
2023/05/21 18:26:01;;;;;;;4.80;3.00;;;;;;;19.84;56.91;98951.77;225386;1283;22556;-75
2023/05/21 18:31:06;;;;;;;3.60;3.10;;;;;;;19.54;57.50;98959.12;225333;1267;22550;-74
2023/05/21 18:36:16;;;;;;;3.30;2.80;;;;;;;19.24;58.05;98961.67;225388;1281;22577;-76
2023/05/21 18:41:18;;;;;;;8.00;3.30;;;;;;;19.00;58.51;98961.73;225419;1281;22555;-75
2023/05/21 18:46:21;;;;;;;3.70;3.40;;;;;;;18.78;58.87;98960.88;225412;1283;22577;-75
2023/05/21 18:51:24;;;;;;;3.60;3.10;;;;;;;18.56;59.31;98954.77;225404;1283;22543;-76
2023/05/21 18:56:26;;;;;;;5.20;3.60;;;;;;;18.36;59.61;98961.02;225343;1283;22547;-75
2023/05/21 19:01:28;;;;;;;4.60;3.20;;;;;;;18.20;59.80;98972.53;225347;1281;22583;-75
2023/05/21 19:06:31;;;;;;;3.30;3.00;;;;;;;18.06;60.05;98982.20;225426;1281;25361;-75
2023/05/21 19:11:33;;;;;;;6.40;3.20;;;;;;;17.88;60.20;98986.90;225382;1282;24400;-75
2023/05/21 19:16:44;;;;;;;4.40;3.10;;;;;;;17.68;60.58;98987.08;225321;1283;22554;-76
2023/05/21 19:21:47;;;;;;;4.80;3.30;;;;;;;17.49;61.19;98987.20;225286;1280;25407;-76
2023/05/21 19:26:49;;;;;;;5.10;3.30;;;;;;;17.30;61.51;98990.59;225201;1283;22572;-74
2023/05/21 19:31:55;;;;;;;4.00;3.20;;;;;;;17.12;61.94;98991.98;225383;1265;22603;-75
2023/05/21 19:37:16;;;;;;;20.10;18.10;;;;;;;16.96;62.20;98993.70;225296;1281;22570;-76
2023/05/21 19:42:20;;;;;;;5.70;5.10;;;;;;;16.81;62.65;98993.02;225294;1284;24748;-76
2023/05/21 19:47:34;;;;;;;4.30;3.70;;;;;;;16.71;62.92;98996.41;225298;1278;22641;-75
2023/05/21 19:52:37;;;;;;;4.40;3.20;;;;;;;16.69;63.24;98992.40;225320;1284;22571;-76
2023/05/21 19:57:40;;;;;;;4.40;4.00;;;;;;;16.72;63.21;98995.21;225300;1284;22570;-75
2023/05/21 20:02:42;;;;;;;5.00;3.60;;;;;;;16.70;63.16;98994.48;225393;1278;22547;-78
2023/05/21 20:07:45;;;;;;;7.40;3.90;;;;;;;16.61;63.21;98985.62;225403;1283;22553;-74
2023/05/21 20:12:50;;;;;;;6.20;4.00;;;;;;;16.46;63.48;98980.27;225385;1281;25391;-76
2023/05/21 20:17:54;;;;;;;6.00;3.80;;;;;;;16.31;64.09;98969.25;225340;1283;22735;-76
2023/05/21 20:22:56;;;;;;;6.10;3.40;;;;;;;16.22;64.23;98969.33;225297;1260;22549;-74
2023/05/21 20:28:02;;;;;;;4.90;3.30;;;;;;;16.13;64.24;98969.22;225427;1281;23277;-76
2023/05/21 20:33:04;;;;;;;5.30;3.70;;;;;;;16.12;64.71;98965.13;225428;1279;22558;-75
2023/05/21 20:38:06;;;;;;;8.90;4.10;;;;;;;16.13;64.93;98964.23;225410;1283;22567;-74
2023/05/21 20:43:17;;;;;;;4.80;3.80;;;;;;;16.11;65.07;98966.48;225366;1283;22589;-74
2023/05/21 20:48:22;;;;;;;5.00;4.30;;;;;;;16.01;65.19;98968.21;225445;1279;22594;-76
2023/05/21 20:53:32;;;;;;;6.70;4.00;;;;;;;15.91;65.44;98971.17;225394;1276;22573;-75
2023/05/21 20:58:38;;;;;;;4.70;3.50;;;;;;;15.78;65.68;98974.02;225465;1279;22530;-75
2023/05/21 21:03:49;;;;;;;6.50;3.20;;;;;;;15.66;65.69;98970.91;225406;1281;24208;-75
2023/05/21 21:09:01;;;;;;;5.60;3.50;;;;;;;15.54;66.08;98968.57;225423;1280;22564;-75
2023/05/21 21:14:19;;;;;;;3.70;3.00;;;;;;;15.44;65.95;98969.42;225386;1283;24223;-76
2023/05/21 21:19:29;;;;;;;5.50;3.50;;;;;;;15.33;66.32;98969.16;225457;1259;22539;-74
2023/05/21 21:24:51;;;;;;;;;;;;;;;;;;;;;
2023/05/21 21:30:39;;;;;;;;;;;;;;;;;;;;;
2023/05/21 21:36:05;;;;;;;5.50;3.50;;;;;;;14.98;66.80;98978.63;225412;1281;22540;-74
2023/05/21 21:41:20;;;;;;;5.80;3.20;;;;;;;14.85;67.00;98985.15;225443;1278;25413;-75
2023/05/21 21:46:36;;;;;;;4.80;3.40;;;;;;;14.73;67.19;98980.48;225370;1283;22558;-74
2023/05/21 21:51:50;;;;;;;5.40;3.00;;;;;;;14.62;67.34;98974.59;225359;1265;22570;-75
2023/05/21 21:57:07;;;;;;;4.40;3.10;;;;;;;14.56;67.25;98970.67;225464;1283;23705;-75
2023/05/21 22:02:26;;;;;;;4.00;3.30;;;;;;;14.53;67.74;98971.60;225421;1279;22573;-74
2023/05/21 22:07:54;;;;;;;4.50;3.10;;;;;;;14.52;67.37;98968.45;225527;1279;22550;-73
2023/05/21 22:13:03;;;;;;;4.10;3.10;;;;;;;14.45;67.51;98963.09;225471;1281;22540;-74
2023/05/21 22:18:18;;;;;;;5.80;3.30;;;;;;;14.37;67.48;98963.13;225441;1283;22547;-75
2023/05/21 22:23:38;;;;;;;5.30;3.00;;;;;;;14.26;67.72;98962.78;225438;1283;22626;-74
2023/05/21 22:28:43;;;;;;;4.00;3.50;;;;;;;14.18;67.87;98961.64;225459;1283;22559;-74
2023/05/21 22:33:55;;;;;;;4.00;3.40;;;;;;;14.09;67.87;98962.96;225432;1283;22549;-74
2023/05/21 22:39:08;;;;;;;3.60;3.20;;;;;;;14.00;68.35;98969.38;221325;1283;5379721;-74
2023/05/21 22:44:23;;;;;;;4.30;3.10;;;;;;;13.90;68.51;98970.33;225490;1275;22547;-75
2023/05/21 22:49:56;;;;;;;5.20;3.30;;;;;;;13.81;68.57;98967.75;225505;1283;22569;-75
2023/05/21 22:55:10;;;;;;;4.30;3.30;;;;;;;13.70;68.98;98971.70;225489;1283;22549;-75
2023/05/21 23:00:21;;;;;;;4.40;3.20;;;;;;;13.61;68.81;98971.27;225510;1283;22547;-75
2023/05/21 23:05:26;;;;;;;5.60;3.10;;;;;;;13.51;69.08;98974.46;225439;1283;26063;-75
2023/05/21 23:10:49;;;;;;;4.60;3.40;;;;;;;13.46;69.22;98968.87;225512;1283;22542;-73
2023/05/21 23:15:59;;;;;;;4.50;3.60;;;;;;;13.43;69.27;98968.86;225516;1283;22570;-74
2023/05/21 23:21:20;;;;;;;5.80;3.10;;;;;;;13.40;69.10;98974.45;225391;1283;25412;-73
2023/05/21 23:26:28;;;;;;;4.30;3.10;;;;;;;13.34;69.16;98978.42;225547;1279;25339;-74
2023/05/21 23:31:59;;;;;;;4.30;3.00;;;;;;;13.26;69.23;98975.84;225385;1283;22545;-74
2023/05/21 23:37:24;;;;;;;6.80;3.00;;;;;;;13.16;69.17;98971.77;225485;1283;22548;-74
2023/05/21 23:42:57;;;;;;;;;;;;;;;;;;;;;
2023/05/21 23:48:13;;;;;;;4.70;3.30;;;;;;;13.04;69.40;98964.41;225375;1283;22576;-75
2023/05/21 23:53:21;;;;;;;3.40;2.90;;;;;;;13.00;69.39;98958.31;225516;1283;22618;-74
2023/05/21 23:58:32;;;;;;;3.80;3.20;;;;;;;13.00;69.32;98957.13;225447;1281;22619;-74
